createdAt,value
2022-09-26T00:01:18.942Z,15.00
2022-09-26T00:03:49.842Z,14.87
2022-09-26T00:06:18.566Z,15.53
2022-09-26T00:08:47.386Z,14.60
2022-09-26T00:11:18.307Z,14.90
2022-09-26T00:13:46.063Z,13.87
2022-09-26T00:16:15.291Z,14.37
2022-09-26T00:18:42.902Z,14.10
2022-09-26T00:21:13.482Z,14.37
2022-09-26T00:23:42.230Z,14.17
2022-09-26T00:26:10.849Z,14.20
2022-09-26T00:28:38.645Z,13.97
2022-09-26T00:31:06.594Z,13.90
2022-09-26T00:33:34.692Z,13.53
2022-09-26T00:36:02.703Z,13.53
2022-09-26T00:38:31.672Z,13.23
2022-09-26T00:40:59.406Z,13.07
2022-09-26T00:43:31.247Z,13.30
2022-09-26T00:46:03.292Z,12.67
2022-09-26T00:48:32.647Z,12.70
2022-09-26T00:51:00.847Z,12.20
2022-09-26T00:53:32.647Z,13.03
2022-09-26T00:56:06.052Z,14.03
2022-09-26T00:58:36.942Z,12.50
2022-09-26T01:01:04.558Z,13.77
2022-09-26T01:03:32.901Z,13.10
2022-09-26T01:06:01.468Z,12.57
2022-09-26T01:08:33.300Z,12.17
2022-09-26T01:11:00.958Z,12.67
2022-09-26T01:13:28.534Z,12.63
2022-09-26T01:15:58.255Z,12.63
2022-09-26T01:18:27.501Z,15.03
2022-09-26T01:20:59.681Z,12.30
2022-09-26T01:24:00.554Z,12.20
2022-09-26T01:26:46.477Z,13.60
2022-09-26T01:30:02.226Z,12.43
2022-09-26T01:32:50.312Z,12.57
2022-09-26T01:35:29.217Z,12.50
2022-09-26T01:38:03.116Z,16.73
2022-09-26T01:40:34.281Z,13.07
2022-09-26T01:43:06.802Z,14.33
2022-09-26T01:45:40.755Z,12.43
2022-09-26T01:48:16.770Z,12.03
2022-09-26T01:50:46.928Z,12.10
2022-09-26T01:53:17.118Z,11.93
2022-09-26T01:55:49.865Z,11.93
2022-09-26T01:58:22.161Z,13.27
2022-09-26T02:00:50.905Z,12.57
2022-09-26T02:03:28.956Z,12.40
2022-09-26T02:05:59.930Z,11.57
2022-09-26T02:08:30.772Z,12.23
2022-09-26T02:11:02.352Z,11.70
2022-09-26T02:13:32.452Z,11.27
2022-09-26T02:16:05.334Z,11.43
2022-09-26T02:18:36.667Z,11.00
2022-09-26T02:21:11.985Z,11.30
2022-09-26T02:23:39.633Z,10.90
2022-09-26T02:26:07.637Z,11.20
2022-09-26T02:28:35.204Z,12.10
2022-09-26T02:31:04.070Z,12.43
2022-09-26T02:33:31.878Z,11.73
2022-09-26T02:36:02.480Z,11.17
2022-09-26T02:38:32.560Z,11.67
2022-09-26T02:41:18.965Z,11.87
2022-09-26T02:43:58.401Z,11.40
2022-09-26T02:46:39.617Z,14.67
2022-09-26T02:49:17.602Z,12.93
2022-09-26T02:51:59.698Z,12.27
2022-09-26T02:54:32.235Z,12.47
2022-09-26T02:57:12.310Z,13.97
2022-09-26T02:59:49.110Z,13.00
2022-09-26T03:02:20.830Z,13.03
2022-09-26T03:05:11.763Z,12.90
2022-09-26T03:07:44.519Z,12.80
2022-09-26T03:10:13.541Z,12.70
2022-09-26T03:12:44.385Z,13.50
2022-09-26T03:15:13.459Z,12.93
2022-09-26T03:17:43.904Z,12.33
2022-09-26T03:20:17.676Z,12.70
2022-09-26T03:22:46.804Z,13.30
2022-09-26T03:25:17.110Z,14.20
2022-09-26T03:27:51.565Z,12.83
2022-09-26T03:30:21.046Z,12.77
2022-09-26T03:33:04.799Z,13.87
2022-09-26T03:35:32.300Z,13.03
2022-09-26T03:38:01.074Z,13.47
2022-09-26T03:40:31.277Z,15.30
2022-09-26T03:43:24.221Z,12.83
2022-09-26T03:45:53.239Z,13.20
2022-09-26T03:48:24.922Z,13.67
2022-09-26T03:50:52.370Z,14.50
2022-09-26T03:53:21.088Z,14.23
2022-09-26T03:55:48.526Z,13.73
2022-09-26T03:58:15.972Z,14.33
2022-09-26T04:00:43.512Z,14.20
2022-09-26T04:03:11.024Z,14.57
2022-09-26T04:05:41.088Z,14.87
2022-09-26T04:08:09.206Z,16.07
2022-09-26T04:10:39.943Z,15.57
2022-09-26T04:13:08.439Z,14.50
2022-09-26T04:15:37.638Z,14.27
2022-09-26T04:18:12.936Z,14.50
2022-09-26T04:20:40.325Z,15.33
2022-09-26T04:23:07.836Z,15.70
2022-09-26T04:25:37.900Z,16.13
2022-09-26T04:28:08.225Z,15.13
2022-09-26T04:30:35.647Z,15.73
2022-09-26T04:33:03.172Z,15.33
2022-09-26T04:35:36.592Z,15.17
2022-09-26T04:38:04.700Z,14.93
2022-09-26T04:40:33.884Z,15.40
2022-09-26T04:43:10.986Z,15.20
2022-09-26T04:45:41.427Z,15.40
2022-09-26T04:48:13.864Z,15.20
2022-09-26T04:50:44.114Z,15.60
2022-09-26T04:53:12.233Z,14.97
2022-09-26T04:55:46.830Z,14.73
2022-09-26T04:58:17.273Z,15.47
2022-09-26T05:00:47.383Z,14.77
2022-09-26T05:03:18.288Z,15.63
2022-09-26T05:05:47.282Z,16.13
2022-09-26T05:08:15.364Z,15.67
2022-09-26T05:10:43.059Z,15.20
2022-09-26T05:13:10.784Z,15.57
2022-09-26T05:15:41.544Z,15.53
2022-09-26T05:18:11.331Z,15.20
2022-09-26T05:20:39.335Z,15.43
2022-09-26T05:23:08.491Z,15.27
2022-09-26T05:25:58.012Z,14.67
2022-09-26T05:28:25.774Z,15.20
2022-09-26T05:30:55.597Z,15.97
2022-09-26T05:33:23.080Z,15.67
2022-09-26T05:35:54.062Z,16.33
2022-09-26T05:38:22.005Z,17.07
2022-09-26T05:40:56.419Z,16.70
2022-09-26T05:43:25.090Z,16.90
2022-09-26T05:45:59.029Z,18.03
2022-09-26T05:48:30.122Z,16.40
2022-09-26T05:50:57.649Z,17.47
2022-09-26T05:53:25.779Z,17.47
2022-09-26T05:55:54.058Z,17.30
2022-09-26T05:58:32.155Z,17.93
2022-09-26T06:01:19.896Z,17.60
2022-09-26T06:03:54.675Z,18.33
2022-09-26T06:06:27.460Z,18.10
2022-09-26T06:09:03.177Z,17.90
2022-09-26T06:11:49.100Z,18.50
2022-09-26T06:14:17.306Z,18.60
2022-09-26T06:16:46.142Z,19.17
2022-09-26T06:19:14.653Z,19.87
2022-09-26T06:21:44.120Z,20.80
2022-09-26T06:24:15.090Z,20.17
2022-09-26T06:26:43.462Z,21.87
2022-09-26T06:29:11.560Z,20.77
2022-09-26T06:31:41.697Z,20.53
2022-09-26T06:34:13.730Z,21.13
2022-09-26T06:37:04.470Z,20.73
2022-09-26T06:39:35.530Z,21.20
2022-09-26T06:42:03.186Z,22.23
2022-09-26T06:44:50.875Z,21.60
2022-09-26T06:47:24.262Z,21.70
2022-09-26T06:50:06.249Z,22.70
2022-09-26T06:52:37.415Z,22.10
2022-09-26T06:55:07.638Z,22.87
2022-09-26T06:57:37.933Z,22.93
2022-09-26T07:00:06.813Z,22.57
2022-09-26T07:03:00.186Z,23.17
2022-09-26T07:05:48.648Z,23.10
2022-09-26T07:08:16.854Z,23.47
2022-09-26T07:10:44.458Z,23.10
2022-09-26T07:13:25.601Z,21.90
2022-09-26T07:15:53.914Z,21.00
2022-09-26T07:18:28.165Z,23.50
2022-09-26T07:21:06.491Z,23.83
2022-09-26T07:23:48.624Z,23.70
2022-09-26T07:26:18.389Z,23.23
2022-09-26T07:28:47.751Z,23.63
2022-09-26T07:31:19.504Z,22.97
2022-09-26T07:34:14.623Z,22.40
2022-09-26T07:36:48.179Z,22.63
2022-09-26T07:39:16.306Z,22.90
2022-09-26T07:41:46.091Z,21.90
2022-09-26T07:47:19.531Z,22.30
2022-09-26T07:50:05.242Z,22.67
2022-09-26T07:52:44.544Z,22.43
2022-09-26T07:55:27.031Z,22.67
2022-09-26T07:58:13.033Z,22.73
2022-09-26T08:00:59.094Z,23.03
2022-09-26T08:03:49.567Z,22.70
2022-09-26T08:06:25.485Z,23.23
2022-09-26T08:08:55.484Z,22.73
2022-09-26T08:11:43.204Z,22.53
2022-09-26T08:14:29.507Z,22.80
2022-09-26T08:17:15.779Z,23.10
2022-09-26T08:19:43.676Z,23.07
2022-09-26T08:22:14.400Z,22.93
2022-09-26T08:24:45.048Z,22.13
2022-09-26T08:27:33.416Z,22.87
2022-09-26T08:30:01.272Z,22.07
2022-09-26T08:32:32.102Z,22.47
2022-09-26T08:34:59.985Z,22.10
2022-09-26T08:37:50.242Z,22.87
2022-09-26T08:40:45.813Z,22.80
2022-09-26T08:43:41.885Z,22.30
2022-09-26T08:46:44.517Z,22.33
2022-09-26T08:49:43.925Z,22.50
2022-09-26T08:52:25.758Z,22.60
2022-09-26T08:54:54.525Z,22.60
2022-09-26T08:57:31.527Z,22.47
2022-09-26T08:59:58.993Z,22.33
2022-09-26T09:02:32.927Z,23.20
2022-09-26T09:05:09.806Z,22.73
2022-09-26T09:07:42.003Z,22.60
2022-09-26T09:10:16.418Z,22.20
2022-09-26T09:13:02.532Z,22.97
2022-09-26T09:15:53.938Z,22.87
2022-09-26T09:18:31.643Z,23.00
2022-09-26T09:21:24.304Z,22.40
2022-09-26T09:24:14.582Z,21.90
2022-09-26T09:29:49.829Z,21.67
2022-09-26T09:32:44.579Z,21.67
2022-09-26T09:35:39.296Z,21.43
2022-09-26T09:38:29.517Z,21.90
2022-09-26T09:41:14.846Z,22.90
2022-09-26T09:43:45.057Z,24.10
2022-09-26T09:46:18.117Z,24.50
2022-09-26T09:48:47.938Z,23.00
2022-09-26T09:51:24.164Z,22.30
2022-09-26T09:54:07.006Z,23.50
2022-09-26T09:56:45.417Z,25.30
2022-09-26T09:59:32.088Z,25.60
2022-09-26T10:02:19.254Z,26.00
2022-09-26T10:04:49.098Z,26.03
2022-09-26T10:07:17.361Z,25.57
2022-09-26T10:10:00.236Z,25.30
2022-09-26T10:13:00.165Z,25.07
2022-09-26T10:16:00.835Z,24.73
2022-09-26T10:19:03.366Z,24.77
2022-09-26T10:21:33.738Z,23.93
2022-09-26T10:24:03.906Z,23.17
2022-09-26T10:26:51.681Z,23.73
2022-09-26T10:29:34.923Z,22.47
2022-09-26T10:32:03.478Z,22.80
2022-09-26T10:34:34.605Z,21.30
2022-09-26T10:37:21.485Z,21.37
2022-09-26T10:40:10.341Z,22.27
2022-09-26T10:42:38.301Z,21.60
2022-09-26T10:45:12.118Z,21.63
2022-09-26T10:47:59.265Z,23.30
2022-09-26T10:51:01.767Z,22.77
2022-09-26T10:53:42.527Z,23.33
2022-09-26T10:56:12.858Z,21.40
2022-09-26T10:58:42.182Z,22.03
2022-09-26T11:01:19.007Z,21.80
2022-09-26T11:03:47.916Z,22.50
2022-09-26T11:06:28.673Z,21.30
2022-09-26T11:09:04.700Z,21.73
2022-09-26T11:11:52.514Z,21.83
2022-09-26T11:14:28.995Z,21.30
2022-09-26T11:17:08.919Z,21.93
2022-09-26T11:19:42.506Z,21.63
2022-09-26T11:22:15.691Z,21.00
2022-09-26T11:24:47.762Z,21.67
2022-09-26T11:27:24.052Z,21.17
2022-09-26T11:29:55.639Z,21.17
2022-09-26T11:32:30.141Z,21.87
2022-09-26T11:35:02.170Z,21.20
2022-09-26T11:38:09.110Z,22.00
2022-09-26T11:40:45.461Z,20.10
2022-09-26T11:43:25.361Z,20.93
2022-09-26T11:46:15.125Z,22.30
2022-09-26T11:49:30.827Z,21.10
2022-09-26T11:52:29.480Z,21.10
2022-09-26T11:55:11.155Z,20.43
2022-09-26T11:57:42.314Z,21.63
2022-09-26T12:00:15.930Z,21.27
2022-09-26T12:03:06.536Z,21.10
2022-09-26T12:05:42.413Z,21.43
2022-09-26T12:08:17.433Z,20.50
2022-09-26T12:10:56.557Z,19.90
2022-09-26T12:13:34.104Z,20.40
2022-09-26T12:16:12.555Z,20.43
2022-09-26T12:18:46.923Z,20.13
2022-09-26T12:21:22.921Z,20.97
2022-09-26T12:23:53.077Z,20.73
2022-09-26T12:26:26.897Z,20.13
2022-09-26T12:29:15.929Z,20.63
2022-09-26T12:31:54.904Z,21.40
2022-09-26T12:34:32.601Z,21.43
2022-09-26T12:37:14.049Z,20.80
2022-09-26T12:39:53.817Z,20.00
2022-09-26T12:42:38.679Z,20.27
2022-09-26T12:45:24.293Z,20.00
2022-09-26T12:48:05.564Z,19.93
2022-09-26T12:50:41.202Z,19.77
2022-09-26T12:53:28.172Z,19.13
2022-09-26T12:56:03.193Z,19.13
2022-09-26T12:58:43.436Z,18.90
2022-09-26T13:01:23.641Z,18.43
2022-09-26T13:04:04.246Z,18.50
2022-09-26T13:07:18.192Z,17.93
2022-09-26T13:10:12.855Z,18.53
2022-09-26T13:12:53.169Z,18.03
2022-09-26T13:15:26.989Z,17.70
2022-09-26T13:18:00.800Z,18.27
2022-09-26T13:20:30.620Z,17.47
2022-09-26T13:23:00.199Z,17.27
2022-09-26T13:25:30.678Z,17.07
2022-09-26T13:28:04.909Z,17.77
2022-09-26T13:30:36.233Z,18.57
2022-09-26T13:33:08.949Z,17.33
2022-09-26T13:35:42.121Z,17.73
2022-09-26T13:38:19.645Z,18.57
2022-09-26T13:40:53.645Z,17.50
2022-09-26T13:43:28.953Z,17.90
2022-09-26T13:46:03.741Z,17.87
2022-09-26T13:48:40.377Z,18.23
2022-09-26T13:51:19.054Z,18.60
2022-09-26T13:53:54.128Z,18.00
2022-09-26T13:56:43.998Z,18.70
2022-09-26T13:59:27.237Z,18.57
2022-09-26T14:02:28.353Z,18.43
2022-09-26T14:05:25.625Z,19.00
2022-09-26T14:08:11.243Z,19.33
2022-09-26T14:10:40.181Z,19.70
2022-09-26T14:13:20.050Z,18.90
2022-09-26T14:16:02.226Z,19.50
2022-09-26T14:18:53.842Z,19.43
2022-09-26T14:21:37.462Z,19.60
2022-09-26T14:24:28.542Z,18.67
2022-09-26T14:27:04.876Z,18.60
2022-09-26T14:29:37.593Z,18.80
2022-09-26T14:32:07.906Z,19.50
2022-09-26T14:34:41.716Z,19.80
2022-09-26T14:37:26.319Z,20.23
2022-09-26T14:40:02.786Z,21.27
2022-09-26T14:42:35.029Z,20.23
2022-09-26T14:45:04.788Z,21.30
2022-09-26T14:47:40.191Z,21.40
2022-09-26T14:50:17.268Z,20.93
2022-09-26T14:52:51.257Z,20.00
2022-09-26T14:55:19.241Z,19.60
2022-09-26T14:57:47.694Z,19.53
2022-09-26T15:00:35.199Z,18.90
2022-09-26T15:03:05.578Z,18.43
2022-09-26T15:05:34.522Z,18.33
2022-09-26T15:08:02.321Z,18.47
2022-09-26T15:10:39.954Z,18.43
2022-09-26T15:13:17.823Z,18.30
2022-09-26T15:15:51.628Z,17.23
2022-09-26T15:18:29.666Z,17.50
2022-09-26T15:21:04.403Z,17.63
2022-09-26T15:23:34.113Z,18.43
2022-09-26T15:26:03.368Z,19.93
2022-09-26T15:28:34.638Z,20.13
2022-09-26T15:31:22.526Z,21.20
2022-09-26T15:33:56.029Z,21.90
2022-09-26T15:36:28.746Z,21.10
2022-09-26T15:38:56.437Z,20.80
2022-09-26T15:41:41.505Z,20.40
2022-09-26T15:44:09.573Z,20.73
2022-09-26T15:46:37.020Z,19.80
2022-09-26T15:49:13.853Z,19.50
2022-09-26T15:51:43.920Z,18.47
2022-09-26T15:54:15.161Z,19.20
2022-09-26T15:56:46.146Z,18.67
2022-09-26T15:59:18.314Z,18.43
2022-09-26T16:01:48.801Z,18.33
2022-09-26T16:04:20.298Z,18.27
2022-09-26T16:06:58.268Z,18.33
2022-09-26T16:09:32.170Z,18.43
2022-09-26T16:12:01.026Z,18.50
2022-09-26T16:14:33.264Z,17.93
2022-09-26T16:17:04.681Z,18.70
2022-09-26T16:19:35.689Z,17.67
2022-09-26T16:22:40.023Z,17.50
2022-09-26T16:25:31.962Z,17.73
2022-09-26T16:28:32.029Z,17.37
2022-09-26T16:31:10.335Z,17.07
2022-09-26T16:33:40.319Z,17.57
2022-09-26T16:36:16.998Z,16.53
2022-09-26T16:38:51.042Z,16.57
2022-09-26T16:41:48.822Z,16.43
2022-09-26T16:44:26.206Z,17.73
2022-09-26T16:46:56.170Z,17.20
2022-09-26T16:49:48.208Z,17.87
2022-09-26T16:52:29.409Z,16.43
2022-09-26T16:54:58.653Z,17.40
2022-09-26T16:57:29.956Z,17.50
2022-09-26T17:00:21.416Z,17.10
2022-09-26T17:02:47.928Z,16.13
2022-09-26T17:05:18.258Z,16.37
2022-09-26T17:07:45.906Z,15.17
2022-09-26T17:10:13.502Z,15.03
2022-09-26T17:12:42.389Z,15.13
2022-09-26T17:15:14.239Z,15.53
2022-09-26T17:17:41.755Z,15.80
2022-09-26T17:20:12.701Z,15.87
2022-09-26T17:22:40.037Z,14.70
2022-09-26T17:25:12.351Z,15.23
2022-09-26T17:27:42.101Z,15.63
2022-09-26T17:30:16.172Z,14.33
2022-09-26T17:32:49.438Z,14.90
2022-09-26T17:35:22.799Z,14.53
2022-09-26T17:37:50.309Z,15.07
2022-09-26T17:40:22.710Z,15.40
2022-09-26T17:42:52.347Z,14.60
2022-09-26T17:45:19.794Z,14.33
2022-09-26T17:47:47.178Z,13.90
2022-09-26T17:50:19.798Z,14.13
2022-09-26T17:52:47.691Z,14.77
2022-09-26T17:55:15.057Z,13.93
2022-09-26T17:57:42.570Z,14.40
2022-09-26T18:00:17.815Z,14.03
2022-09-26T18:02:46.277Z,14.33
2022-09-26T18:05:18.752Z,14.30
2022-09-26T18:07:47.429Z,13.97
2022-09-26T18:10:20.148Z,13.53
2022-09-26T18:12:47.847Z,13.83
2022-09-26T18:15:20.795Z,13.83
2022-09-26T18:17:49.579Z,14.60
2022-09-26T18:20:18.201Z,14.00
2022-09-26T18:22:46.091Z,13.60
2022-09-26T18:25:18.833Z,13.27
2022-09-26T18:27:47.356Z,13.40
2022-09-26T18:30:17.465Z,13.77
2022-09-26T18:32:47.223Z,13.50
2022-09-26T18:35:16.088Z,13.73
2022-09-26T18:37:43.526Z,13.57
2022-09-26T18:40:14.329Z,13.20
2022-09-26T18:42:44.273Z,13.50
2022-09-26T18:45:14.039Z,13.50
2022-09-26T18:47:44.559Z,13.20
2022-09-26T18:50:20.982Z,13.33
2022-09-26T18:52:48.448Z,13.00
2022-09-26T18:55:37.077Z,12.90
2022-09-26T18:58:21.829Z,13.83
2022-09-26T19:00:49.493Z,13.50
2022-09-26T19:03:18.366Z,13.00
2022-09-26T19:05:45.698Z,12.70
2022-09-26T19:08:27.797Z,13.33
2022-09-26T19:10:55.857Z,13.43
2022-09-26T19:13:27.432Z,20.67
2022-09-26T19:15:55.336Z,13.07
2022-09-26T19:18:24.062Z,12.40
2022-09-26T19:20:51.432Z,13.23
2022-09-26T19:23:18.798Z,13.43
2022-09-26T19:25:46.145Z,12.77
2022-09-26T19:28:14.235Z,12.77
2022-09-26T19:30:41.844Z,13.93
2022-09-26T19:33:11.102Z,12.50
2022-09-26T19:35:40.103Z,12.03
2022-09-26T19:38:16.469Z,12.30
2022-09-26T19:40:48.359Z,12.67
2022-09-26T19:43:16.709Z,12.07
2022-09-26T19:45:44.670Z,12.23
2022-09-26T19:48:16.546Z,12.63
2022-09-26T19:50:47.072Z,12.40
2022-09-26T19:53:15.965Z,11.80
2022-09-26T19:55:43.754Z,12.40
2022-09-26T19:58:16.233Z,11.13
2022-09-26T20:00:44.747Z,12.53
2022-09-26T20:03:17.807Z,11.43
2022-09-26T20:05:47.248Z,13.23
2022-09-26T20:08:17.071Z,12.00
2022-09-26T20:10:44.857Z,12.57
2022-09-26T20:13:12.248Z,11.77
2022-09-26T20:15:39.860Z,12.30
2022-09-26T20:18:07.994Z,12.07
2022-09-26T20:20:38.014Z,12.77
2022-09-26T20:23:10.749Z,11.27
2022-09-26T20:25:41.153Z,12.00
2022-09-26T20:28:10.458Z,11.73
2022-09-26T20:30:52.684Z,12.97
2022-09-26T20:33:22.178Z,11.90
2022-09-26T20:35:53.472Z,11.80
2022-09-26T20:38:26.741Z,12.43
2022-09-26T20:41:00.384Z,12.80
2022-09-26T20:43:31.580Z,12.20
2022-09-26T20:45:59.003Z,12.03
2022-09-26T20:48:27.844Z,12.40
2022-09-26T20:50:55.518Z,12.17
2022-09-26T20:53:25.665Z,12.63
2022-09-26T20:55:54.969Z,12.00
2022-09-26T20:58:22.610Z,12.67
2022-09-26T21:00:50.383Z,12.43
2022-09-26T21:03:19.840Z,12.27
2022-09-26T21:05:47.346Z,12.53
2022-09-26T21:08:23.861Z,11.87
2022-09-26T21:10:52.726Z,12.10
2022-09-26T21:13:20.078Z,12.47
2022-09-26T21:15:47.459Z,12.17
2022-09-26T21:18:23.211Z,12.70
2022-09-26T21:20:51.046Z,13.20
2022-09-26T21:23:41.789Z,12.17
2022-09-26T21:26:17.211Z,12.80
2022-09-26T21:28:44.553Z,12.90
2022-09-26T21:31:20.646Z,13.43
2022-09-26T21:33:48.177Z,13.40
2022-09-26T21:36:15.649Z,13.00
2022-09-26T21:38:43.691Z,13.40
2022-09-26T21:41:13.367Z,13.40
2022-09-26T21:43:43.897Z,12.47
2022-09-26T21:46:11.416Z,13.83
2022-09-26T21:48:38.993Z,13.93
2022-09-26T21:51:08.060Z,13.77
2022-09-26T21:53:38.582Z,13.63
2022-09-26T21:56:09.468Z,13.60
2022-09-26T21:58:39.347Z,14.53
2022-09-26T22:01:06.719Z,14.17
2022-09-26T22:03:34.504Z,13.83
2022-09-26T22:06:07.160Z,15.00
2022-09-26T22:08:34.932Z,15.90
2022-09-26T22:11:03.078Z,16.53
2022-09-26T22:13:30.606Z,16.37
2022-09-26T22:16:06.212Z,16.33
2022-09-26T22:18:34.038Z,15.67
2022-09-26T22:21:03.737Z,16.27
2022-09-26T22:23:31.697Z,15.97
2022-09-26T22:25:59.073Z,15.77
2022-09-26T22:28:26.637Z,16.97
2022-09-26T22:30:54.732Z,15.93
2022-09-26T22:33:23.695Z,13.67
2022-09-26T22:35:51.517Z,13.70
2022-09-26T22:38:19.067Z,14.73
2022-09-26T22:40:46.702Z,14.57
2022-09-26T22:43:14.078Z,14.37
2022-09-26T22:45:43.458Z,14.33
2022-09-26T22:48:10.840Z,14.03
2022-09-26T22:50:39.535Z,15.20
2022-09-26T22:53:10.036Z,15.37
2022-09-26T22:55:37.453Z,14.70
2022-09-26T22:58:04.848Z,15.57
2022-09-26T23:00:32.211Z,14.90
2022-09-26T23:02:59.701Z,15.40
2022-09-26T23:05:27.003Z,16.87
2022-09-26T23:07:55.725Z,15.80
2022-09-26T23:10:23.089Z,15.67
2022-09-26T23:12:50.757Z,15.33
2022-09-26T23:15:19.241Z,16.13
2022-09-26T23:17:47.395Z,15.93
2022-09-26T23:20:15.004Z,15.57
2022-09-26T23:22:42.366Z,16.20
2022-09-26T23:25:11.710Z,15.27
2022-09-26T23:27:39.070Z,15.50
2022-09-26T23:30:07.838Z,15.93
2022-09-26T23:32:35.222Z,16.70
2022-09-26T23:35:02.658Z,16.70
2022-09-26T23:37:31.405Z,16.80
2022-09-26T23:39:58.782Z,21.97
2022-09-26T23:42:27.429Z,18.03
2022-09-26T23:44:54.856Z,17.60
2022-09-26T23:47:22.169Z,16.87
2022-09-26T23:49:49.783Z,18.50
2022-09-26T23:52:17.147Z,19.37
2022-09-26T23:54:44.541Z,21.80
2022-09-26T23:57:11.930Z,20.37
2022-09-26T23:59:40.605Z,23.20
